Time;durP1;ratioP1;P1;durP2;ratioP2;P2;SDS_P1;SDS_P2;PMS_P1;PMS_P2;Temp;Humidity;BMP_temperature;BMP_pressure;BME280_temperature;BME280_humidity;BME280_pressure;Samples;Min_cycle;Max_cycle;Signal;HPM_P1;HPM_P2
2022/02/10 00:36:23;;;;;;;5.00;2.35;;;1.30;92.40;;;;;;4953440;29;20038;-78
2022/02/10 00:38:58;;;;;;;4.82;2.28;;;1.30;92.20;;;;;;4953694;28;20027;-78
2022/02/10 00:41:24;;;;;;;5.30;2.13;;;1.30;92.00;;;;;;5013674;28;20034;-77
2022/02/10 00:43:50;;;;;;;3.22;2.20;;;1.20;91.70;;;;;;5013697;28;20025;-77
2022/02/10 00:46:16;;;;;;;3.90;2.60;;;1.20;91.90;;;;;;5013525;28;20040;-77
2022/02/10 00:48:42;;;;;;;5.90;2.85;;;1.30;92.00;;;;;;4997170;28;20122;-77
2022/02/10 00:51:08;;;;;;;4.20;2.13;;;1.30;92.10;;;;;;5010818;28;20025;-76
2022/02/10 00:53:38;;;;;;;3.00;1.83;;;1.30;92.20;;;;;;5034139;28;20439;-76
2022/02/10 00:56:06;;;;;;;2.85;1.60;;;1.40;92.20;;;;;;5034117;28;20014;-77
2022/02/10 00:58:33;;;;;;;3.72;2.72;;;1.40;91.70;;;;;;5016131;28;20032;-76
2022/02/10 01:30:14;;;;;;;5.72;1.20;;;1.40;91.00;;;;;;5013434;28;20036;-77
2022/02/10 01:32:47;;;;;;;1.30;1.05;;;1.40;90.90;;;;;;5013197;28;20026;-77
2022/02/10 01:35:19;;;;;;;1.85;1.23;;;1.30;90.80;;;;;;5012525;28;20026;-78
2022/02/10 01:37:45;;;;;;;1.30;1.02;;;1.30;90.70;;;;;;5013141;28;20026;-77
2022/02/10 02:04:17;;;;;;;5.38;1.50;;;1.40;90.50;;;;;;5012453;28;20391;-76
2022/02/10 02:06:45;;;;;;;1.80;1.30;;;1.40;90.50;;;;;;5012231;28;20022;-78
2022/02/10 02:09:14;;;;;;;4.13;2.05;;;1.40;90.50;;;;;;5012162;28;20050;-77
2022/02/10 02:11:42;;;;;;;1.30;1.10;;;1.40;90.40;;;;;;5012029;28;20038;-77
2022/02/10 02:14:08;;;;;;;;;;;1.30;90.40;;;;;;5012612;28;20384;-77
2022/02/10 02:16:35;;;;;;;1.70;1.30;;;1.20;90.50;;;;;;4994456;28;19905;-77
2022/02/10 02:19:01;;;;;;;1.55;1.08;;;1.20;90.50;;;;;;4994574;28;20058;-77
2022/02/10 02:21:28;;;;;;;1.97;1.27;;;1.20;90.60;;;;;;4994486;28;20048;-77
2022/02/10 02:23:54;;;;;;;1.67;1.43;;;1.30;90.70;;;;;;5012059;28;20022;-77
2022/02/10 02:26:24;;;;;;;3.08;1.25;;;1.20;90.70;;;;;;5012194;28;20105;-77
2022/02/10 02:28:55;;;;;;;1.25;1.15;;;1.20;90.70;;;;;;5031060;28;20386;-77
2022/02/10 02:31:31;;;;;;;1.25;1.15;;;1.30;90.80;;;;;;5031724;28;20463;-76
2022/02/10 02:39:49;;;;;;;2.63;1.20;;;1.30;90.80;;;;;;5012386;28;20061;-77
2022/02/10 03:10:39;;;;;;;1.50;0.93;;;1.10;91.30;;;;;;5001283;28;20494;-77
2022/02/10 03:12:41;;;;;;;3.72;1.30;;;1.10;91.30;;;;;;5031485;28;20049;-76
2022/02/10 03:15:16;;;;;;;1.67;1.20;;;1.10;91.50;;;;;;5034945;28;20112;-78
2022/02/10 04:16:50;;;;;;;3.28;1.90;;;1.10;92.20;;;;;;5008978;28;20088;-79
2022/02/10 04:22:09;;;;;;;4.88;1.77;;;1.10;92.30;;;;;;5013734;28;20088;-78
2022/02/10 04:27:21;;;;;;;2.13;1.67;;;1.10;92.20;;;;;;5033676;28;20044;-77
2022/02/10 04:37:34;;;;;;;3.88;2.00;;;1.10;92.40;;;;;;5033449;28;20175;-76
2022/02/10 04:57:32;;;;;;;4.22;2.08;;;1.00;92.80;;;;;;5033245;28;20498;-79
2022/02/10 05:03:13;;;;;;;4.35;2.58;;;1.00;93.00;;;;;;5033565;28;20037;-77
2022/02/10 05:16:28;;;;;;;4.13;2.40;;;1.10;93.10;;;;;;5032952;28;20515;-79
2022/02/10 05:35:35;;;;;;;5.53;2.90;;;1.10;93.40;;;;;;5032829;28;20035;-80
2022/02/10 05:37:30;;;;;;;3.65;2.83;;;1.10;93.40;;;;;;5023048;28;20041;-80
2022/02/10 05:39:59;;;;;;;4.03;2.45;;;1.10;93.50;;;;;;5032363;28;20021;-80
2022/02/10 05:45:16;;;;;;;6.65;3.63;;;1.20;93.60;;;;;;5035293;28;20025;-77
2022/02/10 05:58:06;;;;;;;8.63;2.92;;;1.30;93.50;;;;;;5033361;28;20036;-78
2022/02/10 06:40:18;;;;;;;3.40;2.60;;;1.50;94.60;;;;;;5035884;28;20103;-80
2022/02/10 06:57:52;;;;;;;4.85;3.35;;;1.80;94.20;;;;;;5035927;28;19912;-82
2022/02/10 07:16:53;;;;;;;10.10;3.70;;;1.90;93.90;;;;;;5035192;28;20025;-82
2022/02/10 07:47:22;;;;;;;12.68;6.03;;;2.00;93.90;;;;;;5015968;28;20486;-83
2022/02/10 08:57:46;;;;;;;6.40;4.10;;;1.70;97.80;;;;;;5016396;28;20129;-85
2022/02/10 09:05:49;;;;;;;12.00;4.85;;;1.80;98.20;;;;;;5019187;28;20116;-82
2022/02/10 09:16:33;;;;;;;10.32;5.18;;;1.70;97.90;;;;;;5035084;28;20121;-83
2022/02/10 09:47:22;;;;;;;12.68;6.88;;;1.80;98.90;;;;;;5013411;28;20128;-82
2022/02/10 09:47:35;;;;;;;8.77;6.25;;;1.90;98.90;;;;;;5013117;28;20030;-82
2022/02/10 10:00:16;;;;;;;7.72;5.38;;;1.60;99.90;;;;;;5039019;28;20541;-81
2022/02/10 10:02:57;;;;;;;11.77;7.68;;;1.60;99.90;;;;;;5018929;28;20478;-83
2022/02/10 10:13:24;;;;;;;9.98;5.95;;;1.80;99.90;;;;;;5030717;28;20388;-83
2022/02/10 10:21:27;;;;;;;8.48;6.25;;;2.00;99.90;;;;;;5012651;28;20128;-82
2022/02/10 10:24:24;;;;;;;12.52;7.22;;;2.00;99.90;;;;;;5013697;28;20018;-83
2022/02/10 10:54:21;;;;;;;15.60;5.90;;;2.40;99.90;;;;;;5033616;28;20068;-81
2022/02/10 10:56:51;;;;;;;8.25;5.60;;;2.50;99.90;;;;;;5037942;28;20099;-81
2022/02/10 11:39:15;;;;;;;8.20;3.40;;;3.60;97.60;;;;;;4974376;28;20039;-84
2022/02/10 12:31:36;;;;;;;8.48;3.00;;;3.70;96.10;;;;;;5034245;28;20110;-82
2022/02/10 12:36:43;;;;;;;3.10;2.10;;;3.70;96.10;;;;;;5034086;28;20628;-84
2022/02/10 13:24:38;;;;;;;4.25;2.28;;;3.40;96.00;;;;;;5033418;28;20111;-83
2022/02/10 13:30:43;;;;;;;7.60;3.85;;;3.40;96.00;;;;;;4971612;28;20078;-83
2022/02/10 14:13:29;;;;;;;10.13;2.85;;;2.40;96.50;;;;;;5020681;28;20129;-82
2022/02/10 14:16:13;;;;;;;1.70;1.17;;;2.30;96.50;;;;;;5014031;28;20111;-81
2022/02/10 14:18:40;;;;;;;4.47;2.92;;;2.30;96.50;;;;;;5016325;28;20038;-84
2022/02/10 14:21:17;;;;;;;4.50;2.00;;;2.30;96.60;;;;;;5031943;28;20037;-82
2022/02/10 14:28:56;;;;;;;3.70;2.03;;;2.20;96.60;;;;;;5033847;28;20422;-81
2022/02/10 14:31:22;;;;;;;5.38;2.65;;;2.10;96.60;;;;;;5016528;28;20025;-83
2022/02/10 14:33:51;;;;;;;9.55;3.58;;;2.10;96.80;;;;;;5034478;28;20493;-83
2022/02/10 14:36:24;;;;;;;3.80;1.52;;;2.10;97.00;;;;;;5016115;28;20127;-81
2022/02/10 14:42:06;;;;;;;4.90;2.58;;;2.20;97.50;;;;;;5032330;28;20482;-82
2022/02/10 15:18:01;;;;;;;6.47;3.60;;;2.50;97.70;;;;;;5035656;28;20136;-82
2022/02/10 16:17:27;;;;;;;4.68;2.28;;;2.20;96.20;;;;;;4998994;28;20033;-83
2022/02/10 16:19:54;;;;;;;6.82;3.50;;;2.20;96.30;;;;;;5038190;28;20113;-84
2022/02/10 16:27:17;;;;;;;3.45;1.70;;;2.20;96.70;;;;;;5046241;28;20138;-84
2022/02/10 16:29:44;;;;;;;4.45;3.10;;;2.30;96.70;;;;;;5020816;28;20466;-83
2022/02/10 16:32:10;;;;;;;6.90;2.63;;;2.30;96.70;;;;;;5035711;28;20026;-83
2022/02/10 16:34:41;;;;;;;6.72;2.03;;;2.30;96.70;;;;;;5034384;28;20364;-84
2022/02/10 16:37:09;;;;;;;2.75;1.80;;;2.30;96.70;;;;;;5034039;28;20030;-82
2022/02/10 16:39:37;;;;;;;6.47;1.95;;;2.30;96.70;;;;;;5016168;28;20060;-81
2022/02/10 16:42:05;;;;;;;6.00;2.33;;;2.30;96.70;;;;;;5017518;28;20088;-84
2022/02/10 16:44:30;;;;;;;;;;;2.30;96.70;;;;;;5016533;28;20613;-81
2022/02/10 16:46:56;;;;;;;3.85;2.28;;;2.30;96.60;;;;;;5032829;28;19999;-83
2022/02/10 16:49:23;;;;;;;4.22;2.08;;;2.20;96.60;;;;;;5033665;28;20029;-83
2022/02/10 16:51:49;;;;;;;3.20;1.80;;;2.20;96.70;;;;;;5034794;28;20097;-84
2022/02/10 17:05:09;;;;;;;3.00;1.80;;;2.20;97.00;;;;;;5033455;28;20463;-82
2022/02/10 17:21:00;;;;;;;3.65;1.65;;;2.00;97.30;;;;;;5033091;28;20087;-81
2022/02/10 17:28:51;;;;;;;2.85;1.33;;;2.10;97.40;;;;;;5032785;28;20044;-82
2022/02/10 17:31:39;;;;;;;4.82;1.42;;;2.10;97.40;;;;;;5014965;28;20028;-83
2022/02/10 17:36:49;;;;;;;3.85;1.52;;;2.10;97.10;;;;;;5032793;28;20021;-83
2022/02/10 17:52:36;;;;;;;2.95;1.90;;;1.90;96.90;;;;;;5033941;28;20036;-82
2022/02/10 17:55:05;;;;;;;3.08;1.70;;;1.80;97.00;;;;;;5034547;28;20425;-82
2022/02/10 17:57:30;;;;;;;3.63;1.63;;;1.90;97.00;;;;;;5016303;28;20026;-82
2022/02/10 17:59:56;;;;;;;3.38;1.83;;;1.80;96.80;;;;;;5015390;28;20075;-80
2022/02/10 18:02:22;;;;;;;3.58;2.28;;;1.90;96.60;;;;;;5032549;28;20573;-80
2022/02/10 18:04:49;;;;;;;3.80;1.83;;;2.00;96.60;;;;;;5033681;28;20049;-82
2022/02/10 18:07:18;;;;;;;2.28;2.08;;;2.00;96.40;;;;;;5029796;28;20072;-83
2022/02/10 18:14:58;;;;;;;2.67;2.00;;;2.10;96.10;;;;;;5013937;28;20411;-83
2022/02/10 18:17:29;;;;;;;2.72;1.70;;;2.20;96.10;;;;;;4997689;28;20080;-82
2022/02/10 18:20:00;;;;;;;3.38;1.73;;;2.20;96.00;;;;;;4999760;28;20072;-81
2022/02/10 18:27:34;;;;;;;3.08;1.35;;;2.20;96.00;;;;;;5034518;28;20024;-82
2022/02/10 18:30:14;;;;;;;2.25;1.88;;;2.20;95.90;;;;;;5017722;28;20026;-82
2022/02/10 19:08:06;;;;;;;4.18;1.35;;;2.30;94.40;;;;;;5035178;28;20140;-81
2022/02/10 19:10:34;;;;;;;6.03;1.30;;;2.30;94.20;;;;;;5017027;28;20537;-81
2022/02/10 19:13:00;;;;;;;2.35;1.55;;;2.20;93.90;;;;;;5027281;28;20049;-81
2022/02/10 19:15:35;;;;;;;5.85;1.67;;;2.20;93.80;;;;;;5032409;28;20033;-82
2022/02/10 19:18:06;;;;;;;4.45;1.48;;;2.20;93.80;;;;;;5017393;28;20022;-84
2022/02/10 19:20:34;;;;;;;1.95;1.35;;;2.20;93.80;;;;;;5035420;28;20557;-82
2022/02/10 19:23:03;;;;;;;2.28;1.38;;;2.10;93.80;;;;;;5028285;28;20091;-82
2022/02/10 19:25:29;;;;;;;2.22;1.20;;;2.10;93.80;;;;;;5035468;28;20025;-81
2022/02/10 19:27:55;;;;;;;5.03;2.00;;;2.10;93.70;;;;;;5028424;28;20040;-83
2022/02/10 19:30:24;;;;;;;3.83;1.80;;;2.20;93.60;;;;;;5008671;28;20068;-85
2022/02/10 19:32:57;;;;;;;2.40;1.58;;;2.20;93.60;;;;;;5035025;28;20033;-84
2022/02/10 19:35:27;;;;;;;3.40;1.58;;;2.20;93.50;;;;;;5028084;28;20057;-83
2022/02/10 19:37:59;;;;;;;1.42;1.02;;;2.20;93.40;;;;;;5017767;28;20060;-81
2022/02/10 19:40:30;;;;;;;2.22;1.20;;;2.20;93.30;;;;;;5012032;28;20549;-81
2022/02/10 19:42:57;;;;;;;4.30;1.88;;;2.20;93.00;;;;;;5012248;28;20087;-80
2022/02/10 19:45:25;;;;;;;3.50;1.83;;;2.30;93.00;;;;;;5034925;28;20014;-83
2022/02/10 19:47:51;;;;;;;3.03;1.58;;;2.30;92.90;;;;;;5034785;28;20548;-82
2022/02/10 19:50:24;;;;;;;2.85;1.70;;;2.30;92.90;;;;;;5035221;28;20078;-80
2022/02/10 19:52:52;;;;;;;4.65;1.63;;;2.40;92.80;;;;;;5009004;28;20134;-81
2022/02/10 19:55:21;;;;;;;4.68;1.73;;;2.40;92.60;;;;;;5029002;28;20475;-83
2022/02/10 19:57:50;;;;;;;7.35;2.90;;;2.30;92.30;;;;;;5022115;28;20030;-83
2022/02/10 20:00:21;;;;;;;3.65;1.38;;;2.30;92.20;;;;;;5001988;28;20431;-88
2022/02/10 20:02:48;;;;;;;8.48;2.08;;;2.40;92.30;;;;;;5001573;28;20133;-85
2022/02/10 20:05:21;;;;;;;4.45;2.13;;;2.30;92.20;;;;;;5022886;28;20100;-85
2022/02/10 20:07:51;;;;;;;4.30;1.42;;;2.30;92.20;;;;;;5017408;28;20577;-83
2022/02/10 20:10:17;;;;;;;3.97;1.95;;;2.40;92.00;;;;;;5035866;28;20124;-84
2022/02/10 20:12:43;;;;;;;4.32;1.73;;;2.30;91.80;;;;;;5035329;28;20099;-86
2022/02/10 20:15:11;;;;;;;2.08;1.73;;;2.30;91.90;;;;;;5036884;28;20025;-84
2022/02/10 20:17:39;;;;;;;4.15;1.75;;;2.30;91.70;;;;;;5038933;28;20045;-87
2022/02/10 20:20:06;;;;;;;3.95;1.98;;;2.30;91.80;;;;;;5023205;28;20483;-87
2022/02/10 20:22:36;;;;;;;8.57;2.03;;;2.30;91.70;;;;;;5020142;28;20582;-91
2022/02/10 20:25:06;;;;;;;4.85;2.20;;;2.20;91.60;;;;;;5016047;28;20029;-91
2022/02/10 20:27:33;;;;;;;2.33;1.80;;;2.20;91.50;;;;;;5034433;28;20081;-87
2022/02/10 20:30:00;;;;;;;5.47;2.17;;;2.20;91.60;;;;;;5016694;28;20104;-85
2022/02/10 20:32:26;;;;;;;6.28;2.20;;;2.20;91.60;;;;;;5016527;28;20470;-85
2022/02/10 20:34:54;;;;;;;2.58;1.80;;;2.20;91.50;;;;;;5034427;28;20119;-84
2022/02/10 20:37:23;;;;;;;3.53;2.25;;;2.20;91.40;;;;;;5034754;28;20068;-84
2022/02/10 20:39:48;;;;;;;4.03;2.25;;;2.20;91.40;;;;;;5034701;28;20028;-85
2022/02/10 20:42:18;;;;;;;4.13;1.88;;;2.20;91.30;;;;;;5017281;28;20045;-85
2022/02/10 20:44:47;;;;;;;5.68;2.65;;;2.20;91.30;;;;;;5018565;28;20057;-85
2022/02/10 20:47:17;;;;;;;3.85;1.92;;;2.10;91.10;;;;;;5033147;28;20022;-86
2022/02/10 20:49:44;;;;;;;5.88;2.20;;;2.10;91.20;;;;;;5052724;28;20030;-83
2022/02/10 20:52:10;;;;;;;3.83;1.98;;;2.10;91.40;;;;;;5037412;28;20431;-84
2022/02/10 20:54:36;;;;;;;6.90;2.53;;;2.10;91.40;;;;;;5026810;28;20041;-82
2022/02/10 20:57:03;;;;;;;5.13;2.05;;;2.20;91.30;;;;;;5036541;28;20029;-83
2022/02/10 20:59:37;;;;;;;4.70;2.00;;;2.10;91.30;;;;;;5035910;28;20100;-85
2022/02/10 21:02:16;;;;;;;3.53;2.20;;;2.20;91.30;;;;;;5040496;28;20044;-87
2022/02/10 21:04:58;;;;;;;4.10;1.98;;;2.20;91.30;;;;;;5029431;28;20087;-83
2022/02/10 21:07:43;;;;;;;6.95;2.22;;;2.20;91.20;;;;;;5025861;28;20010;-87
2022/02/10 21:10:15;;;;;;;5.20;2.10;;;2.30;90.90;;;;;;5030544;28;20026;-89
2022/02/10 21:12:44;;;;;;;3.75;2.10;;;2.30;90.70;;;;;;5031681;28;20045;-87
2022/02/10 21:15:12;;;;;;;6.05;1.60;;;2.30;90.50;;;;;;5033980;28;20482;-91
2022/02/10 21:17:37;;;;;;;5.38;1.90;;;2.30;90.30;;;;;;5030089;28;20029;-83
2022/02/10 21:20:06;;;;;;;4.75;2.40;;;2.30;90.00;;;;;;5036075;28;20025;-89
2022/02/10 21:22:36;;;;;;;4.78;2.10;;;2.30;90.00;;;;;;5015800;28;20033;-88
2022/02/10 21:25:20;;;;;;;4.55;1.98;;;2.30;90.20;;;;;;5007195;28;20013;-87
2022/02/10 21:27:49;;;;;;;5.95;2.15;;;2.30;90.10;;;;;;5031257;28;20040;-88
2022/02/10 21:30:17;;;;;;;4.88;2.35;;;2.30;90.00;;;;;;5039178;28;20036;-90
2022/02/10 21:35:34;;;;;;;4.65;2.10;;;2.30;90.10;;;;;;5034679;28;20129;-92
2022/02/10 21:44:40;;;;;;;6.13;2.10;;;2.20;89.90;;;;;;5042593;28;20079;-87
2022/02/10 21:57:11;;;;;;;5.88;1.85;;;2.20;90.00;;;;;;5047412;28;20056;-89
2022/02/10 21:59:50;;;;;;;3.65;1.67;;;2.20;90.00;;;;;;5022955;28;20045;-87
2022/02/10 22:10:50;;;;;;;5.95;3.15;;;2.20;89.80;;;;;;5036293;28;20056;-81
2022/02/10 22:21:05;;;;;;;4.70;2.17;;;2.30;89.20;;;;;;5016169;28;20022;-89
2022/02/10 22:23:34;;;;;;;2.00;1.17;;;2.20;89.40;;;;;;5031712;28;20076;-86
2022/02/10 22:26:08;;;;;;;3.35;1.40;;;2.30;89.60;;;;;;5010376;28;20029;-85
2022/02/10 22:28:48;;;;;;;4.03;1.50;;;2.20;89.60;;;;;;5011265;28;20021;-83
2022/02/10 22:33:56;;;;;;;2.28;1.60;;;2.20;89.50;;;;;;5027952;28;20032;-84
2022/02/10 22:36:23;;;;;;;3.97;2.45;;;2.20;89.70;;;;;;5025824;28;20022;-83
2022/02/10 22:38:52;;;;;;;3.50;2.28;;;2.20;89.50;;;;;;5014458;28;20039;-82
2022/02/10 22:41:18;;;;;;;3.67;1.80;;;2.20;89.50;;;;;;5020605;28;20026;-83
2022/02/10 22:43:47;;;;;;;7.28;1.90;;;2.10;89.70;;;;;;4996847;28;20034;-85
2022/02/10 22:46:14;;;;;;;2.20;1.15;;;2.10;90.00;;;;;;5026405;28;20022;-83
2022/02/10 22:48:41;;;;;;;3.25;1.75;;;2.10;90.00;;;;;;5034226;28;20022;-86
2022/02/10 22:51:08;;;;;;;4.07;1.88;;;2.10;89.80;;;;;;5016974;28;20030;-84
2022/02/10 22:53:33;;;;;;;4.38;2.15;;;2.10;90.00;;;;;;5025706;28;20572;-85
2022/02/10 22:55:59;;;;;;;2.80;1.25;;;2.10;90.10;;;;;;5023564;28;20097;-82
2022/02/10 22:58:28;;;;;;;5.05;1.55;;;2.20;90.30;;;;;;5024508;28;20022;-83
2022/02/10 23:00:54;;;;;;;4.07;1.50;;;2.20;90.30;;;;;;5035691;28;20021;-82
2022/02/10 23:03:23;;;;;;;6.40;2.10;;;2.20;90.20;;;;;;5043939;28;20059;-85
2022/02/10 23:05:49;;;;;;;4.03;1.33;;;2.20;90.20;;;;;;5020827;28;20041;-80
2022/02/10 23:08:16;;;;;;;3.92;1.50;;;2.20;90.30;;;;;;5032487;28;20025;-81
2022/02/10 23:13:08;;;;;;;4.75;1.77;;;2.10;90.30;;;;;;5037699;28;20049;-83
2022/02/10 23:15:38;;;;;;;5.25;1.92;;;2.10;90.30;;;;;;5019874;28;20572;-81
2022/02/10 23:18:17;;;;;;;4.53;1.58;;;2.10;90.30;;;;;;4999316;28;20088;-87
2022/02/10 23:20:46;;;;;;;3.08;1.30;;;2.10;90.40;;;;;;5016193;28;20480;-82
2022/02/10 23:23:14;;;;;;;2.15;1.20;;;2.10;90.40;;;;;;5015933;28;20491;-82
2022/02/10 23:25:42;;;;;;;4.65;1.35;;;2.10;90.50;;;;;;5031007;28;20494;-82
2022/02/10 23:28:09;;;;;;;;;;;2.10;90.60;;;;;;5033530;28;20368;-81
2022/02/10 23:30:35;;;;;;;3.70;1.60;;;2.10;90.70;;;;;;5035355;28;19937;-83
2022/02/10 23:33:13;;;;;;;2.63;1.85;;;2.10;90.70;;;;;;5022180;28;20061;-81
2022/02/10 23:36:24;;;;;;;4.95;1.38;;;2.00;90.70;;;;;;5034406;28;20071;-86
2022/02/10 23:38:31;;;;;;;5.20;1.55;;;2.10;90.80;;;;;;5035265;28;20029;-82
2022/02/10 23:42:02;;;;;;;2.35;1.10;;;2.00;90.80;;;;;;5034090;28;20021;-83
2022/02/10 23:43:53;;;;;;;2.95;1.77;;;2.10;90.90;;;;;;5014545;28;20495;-82
2022/02/10 23:46:20;;;;;;;6.32;1.52;;;2.10;90.90;;;;;;4999248;28;20038;-85
2022/02/10 23:48:46;;;;;;;3.78;3.10;;;2.10;90.80;;;;;;5016053;28;20029;-79
2022/02/10 23:51:12;;;;;;;3.72;1.67;;;2.10;90.90;;;;;;5024836;28;20025;-77
2022/02/10 23:53:38;;;;;;;6.20;2.72;;;2.10;90.80;;;;;;4998731;28;20034;-78
2022/02/10 23:56:09;;;;;;;4.10;1.58;;;2.10;90.90;;;;;;5034021;28;20078;-78
